sensor_id;sensor_type;location;lat;lon;timestamp;P1;durP1;ratioP1;P2;durP2;ratioP2
9964;SDS011;5023;53.554;9.964;2024-03-02T00:01:16;21.45;;;16.73;;
9964;SDS011;5023;53.554;9.964;2024-03-02T00:06:21;23.85;;;19.02;;
9964;SDS011;5023;53.554;9.964;2024-03-02T00:11:23;22.92;;;17.60;;
9964;SDS011;5023;53.554;9.964;2024-03-02T00:16:27;23.80;;;18.42;;
9964;SDS011;5023;53.554;9.964;2024-03-02T00:21:33;22.38;;;17.33;;
9964;SDS011;5023;53.554;9.964;2024-03-02T00:26:35;25.90;;;17.83;;
9964;SDS011;5023;53.554;9.964;2024-03-02T00:31:37;24.92;;;17.80;;
9964;SDS011;5023;53.554;9.964;2024-03-02T00:36:42;23.38;;;17.55;;
9964;SDS011;5023;53.554;9.964;2024-03-02T00:41:45;22.53;;;17.60;;
9964;SDS011;5023;53.554;9.964;2024-03-02T00:46:47;25.33;;;19.95;;
9964;SDS011;5023;53.554;9.964;2024-03-02T00:51:51;23.17;;;18.83;;
9964;SDS011;5023;53.554;9.964;2024-03-02T00:56:54;29.63;;;20.30;;
9964;SDS011;5023;53.554;9.964;2024-03-02T01:01:57;28.17;;;19.80;;
9964;SDS011;5023;53.554;9.964;2024-03-02T01:07:00;27.90;;;20.98;;
9964;SDS011;5023;53.554;9.964;2024-03-02T01:12:02;31.92;;;22.20;;
9964;SDS011;5023;53.554;9.964;2024-03-02T01:17:05;28.73;;;21.30;;
9964;SDS011;5023;53.554;9.964;2024-03-02T01:22:08;30.50;;;23.42;;
9964;SDS011;5023;53.554;9.964;2024-03-02T01:27:10;36.45;;;27.23;;
9964;SDS011;5023;53.554;9.964;2024-03-02T01:32:12;38.55;;;27.95;;
9964;SDS011;5023;53.554;9.964;2024-03-02T01:37:15;39.23;;;25.37;;
9964;SDS011;5023;53.554;9.964;2024-03-02T01:42:17;35.20;;;25.43;;
9964;SDS011;5023;53.554;9.964;2024-03-02T01:47:19;36.57;;;27.83;;
9964;SDS011;5023;53.554;9.964;2024-03-02T01:52:22;37.37;;;26.93;;
9964;SDS011;5023;53.554;9.964;2024-03-02T01:57:24;34.60;;;25.50;;
9964;SDS011;5023;53.554;9.964;2024-03-02T02:02:26;36.90;;;27.07;;
9964;SDS011;5023;53.554;9.964;2024-03-02T02:07:30;35.30;;;24.90;;
9964;SDS011;5023;53.554;9.964;2024-03-02T02:12:32;37.40;;;27.20;;
9964;SDS011;5023;53.554;9.964;2024-03-02T02:17:34;36.77;;;26.13;;
9964;SDS011;5023;53.554;9.964;2024-03-02T02:22:37;44.77;;;25.87;;
9964;SDS011;5023;53.554;9.964;2024-03-02T02:27:39;46.63;;;26.47;;
9964;SDS011;5023;53.554;9.964;2024-03-02T02:32:41;42.03;;;26.20;;
9964;SDS011;5023;53.554;9.964;2024-03-02T02:37:45;43.87;;;25.07;;
9964;SDS011;5023;53.554;9.964;2024-03-02T02:42:48;34.00;;;24.90;;
9964;SDS011;5023;53.554;9.964;2024-03-02T02:47:52;33.97;;;24.70;;
9964;SDS011;5023;53.554;9.964;2024-03-02T02:52:55;36.70;;;26.50;;
9964;SDS011;5023;53.554;9.964;2024-03-02T02:57:57;37.83;;;25.70;;
9964;SDS011;5023;53.554;9.964;2024-03-02T03:02:59;36.93;;;26.30;;
9964;SDS011;5023;53.554;9.964;2024-03-02T03:08:03;46.53;;;28.57;;
9964;SDS011;5023;53.554;9.964;2024-03-02T03:13:05;43.53;;;27.20;;
9964;SDS011;5023;53.554;9.964;2024-03-02T03:18:08;39.87;;;26.73;;
9964;SDS011;5023;53.554;9.964;2024-03-02T03:23:12;51.20;;;29.87;;
9964;SDS011;5023;53.554;9.964;2024-03-02T03:28:15;42.57;;;26.77;;
9964;SDS011;5023;53.554;9.964;2024-03-02T03:33:22;45.37;;;29.07;;
9964;SDS011;5023;53.554;9.964;2024-03-02T03:38:25;46.97;;;28.50;;
9964;SDS011;5023;53.554;9.964;2024-03-02T03:43:27;49.33;;;29.93;;
9964;SDS011;5023;53.554;9.964;2024-03-02T03:48:29;45.07;;;26.83;;
9964;SDS011;5023;53.554;9.964;2024-03-02T03:53:33;47.57;;;29.37;;
9964;SDS011;5023;53.554;9.964;2024-03-02T03:58:34;51.40;;;31.23;;
9964;SDS011;5023;53.554;9.964;2024-03-02T04:03:36;45.97;;;28.13;;
9964;SDS011;5023;53.554;9.964;2024-03-02T04:08:42;47.40;;;29.20;;
9964;SDS011;5023;53.554;9.964;2024-03-02T04:13:44;40.80;;;27.47;;
9964;SDS011;5023;53.554;9.964;2024-03-02T04:18:46;41.47;;;27.80;;
9964;SDS011;5023;53.554;9.964;2024-03-02T04:23:49;38.07;;;26.50;;
9964;SDS011;5023;53.554;9.964;2024-03-02T04:28:51;40.43;;;27.93;;
9964;SDS011;5023;53.554;9.964;2024-03-02T04:33:54;33.37;;;24.97;;
9964;SDS011;5023;53.554;9.964;2024-03-02T04:38:57;43.83;;;28.00;;
9964;SDS011;5023;53.554;9.964;2024-03-02T04:43:59;32.37;;;23.57;;
9964;SDS011;5023;53.554;9.964;2024-03-02T04:49:01;29.80;;;22.97;;
9964;SDS011;5023;53.554;9.964;2024-03-02T04:54:04;31.17;;;22.97;;
9964;SDS011;5023;53.554;9.964;2024-03-02T04:59:06;31.80;;;23.37;;
9964;SDS011;5023;53.554;9.964;2024-03-02T05:04:08;32.03;;;22.20;;
9964;SDS011;5023;53.554;9.964;2024-03-02T05:09:13;30.67;;;23.40;;
9964;SDS011;5023;53.554;9.964;2024-03-02T05:14:14;33.27;;;24.87;;
9964;SDS011;5023;53.554;9.964;2024-03-02T05:19:16;31.53;;;23.63;;
9964;SDS011;5023;53.554;9.964;2024-03-02T05:24:20;35.27;;;23.70;;
9964;SDS011;5023;53.554;9.964;2024-03-02T05:29:22;29.03;;;22.50;;
9964;SDS011;5023;53.554;9.964;2024-03-02T05:34:24;29.27;;;23.10;;
9964;SDS011;5023;53.554;9.964;2024-03-02T05:39:27;31.43;;;23.37;;
9964;SDS011;5023;53.554;9.964;2024-03-02T05:44:29;27.23;;;21.27;;
9964;SDS011;5023;53.554;9.964;2024-03-02T05:49:31;28.33;;;22.17;;
9964;SDS011;5023;53.554;9.964;2024-03-02T05:54:34;27.93;;;22.10;;
9964;SDS011;5023;53.554;9.964;2024-03-02T05:59:45;30.63;;;21.67;;
9964;SDS011;5023;53.554;9.964;2024-03-02T06:04:53;29.27;;;21.47;;
9964;SDS011;5023;53.554;9.964;2024-03-02T06:09:58;32.07;;;22.60;;
9964;SDS011;5023;53.554;9.964;2024-03-02T06:15:00;30.27;;;21.57;;
9964;SDS011;5023;53.554;9.964;2024-03-02T06:20:02;31.83;;;21.90;;
9964;SDS011;5023;53.554;9.964;2024-03-02T06:25:06;28.67;;;22.03;;
9964;SDS011;5023;53.554;9.964;2024-03-02T06:30:09;30.50;;;22.27;;
9964;SDS011;5023;53.554;9.964;2024-03-02T06:35:12;32.87;;;23.70;;
9964;SDS011;5023;53.554;9.964;2024-03-02T06:40:15;33.17;;;22.83;;
9964;SDS011;5023;53.554;9.964;2024-03-02T06:45:17;33.53;;;23.50;;
9964;SDS011;5023;53.554;9.964;2024-03-02T06:50:19;30.80;;;22.93;;
9964;SDS011;5023;53.554;9.964;2024-03-02T06:55:22;31.87;;;22.80;;
9964;SDS011;5023;53.554;9.964;2024-03-02T07:00:25;35.37;;;24.67;;
9964;SDS011;5023;53.554;9.964;2024-03-02T07:05:26;29.03;;;22.77;;
9964;SDS011;5023;53.554;9.964;2024-03-02T07:10:30;28.40;;;21.63;;
9964;SDS011;5023;53.554;9.964;2024-03-02T07:15:32;27.30;;;21.40;;
9964;SDS011;5023;53.554;9.964;2024-03-02T07:21:06;30.03;;;21.77;;
9964;SDS011;5023;53.554;9.964;2024-03-02T07:26:09;30.80;;;22.60;;
9964;SDS011;5023;53.554;9.964;2024-03-02T07:31:11;29.00;;;20.63;;
9964;SDS011;5023;53.554;9.964;2024-03-02T07:36:13;27.80;;;21.10;;
9964;SDS011;5023;53.554;9.964;2024-03-02T07:41:17;26.47;;;20.67;;
9964;SDS011;5023;53.554;9.964;2024-03-02T07:46:19;33.27;;;22.30;;
9964;SDS011;5023;53.554;9.964;2024-03-02T07:51:21;29.07;;;21.40;;
9964;SDS011;5023;53.554;9.964;2024-03-02T07:56:24;26.73;;;20.73;;
9964;SDS011;5023;53.554;9.964;2024-03-02T08:01:27;32.50;;;21.57;;
9964;SDS011;5023;53.554;9.964;2024-03-02T08:06:29;29.47;;;21.10;;
9964;SDS011;5023;53.554;9.964;2024-03-02T08:11:33;28.47;;;21.67;;
9964;SDS011;5023;53.554;9.964;2024-03-02T08:16:35;28.47;;;20.93;;
9964;SDS011;5023;53.554;9.964;2024-03-02T08:21:37;26.87;;;20.33;;
9964;SDS011;5023;53.554;9.964;2024-03-02T08:26:57;27.43;;;20.53;;
9964;SDS011;5023;53.554;9.964;2024-03-02T08:31:59;27.97;;;20.67;;
9964;SDS011;5023;53.554;9.964;2024-03-02T08:37:01;26.67;;;20.73;;
9964;SDS011;5023;53.554;9.964;2024-03-02T08:42:05;25.47;;;20.27;;
9964;SDS011;5023;53.554;9.964;2024-03-02T08:47:07;28.60;;;21.27;;
9964;SDS011;5023;53.554;9.964;2024-03-02T08:52:09;27.93;;;22.40;;
9964;SDS011;5023;53.554;9.964;2024-03-02T08:57:12;27.70;;;21.53;;
9964;SDS011;5023;53.554;9.964;2024-03-02T09:02:14;26.23;;;19.80;;
9964;SDS011;5023;53.554;9.964;2024-03-02T09:07:16;25.43;;;19.90;;
9964;SDS011;5023;53.554;9.964;2024-03-02T09:12:20;25.93;;;20.07;;
9964;SDS011;5023;53.554;9.964;2024-03-02T09:17:22;25.27;;;19.20;;
9964;SDS011;5023;53.554;9.964;2024-03-02T09:22:23;25.73;;;19.37;;
9964;SDS011;5023;53.554;9.964;2024-03-02T09:27:27;25.17;;;18.80;;
9964;SDS011;5023;53.554;9.964;2024-03-02T09:32:29;24.40;;;17.97;;
9964;SDS011;5023;53.554;9.964;2024-03-02T09:37:31;23.47;;;18.13;;
9964;SDS011;5023;53.554;9.964;2024-03-02T09:42:34;23.38;;;18.60;;
9964;SDS011;5023;53.554;9.964;2024-03-02T09:47:36;22.30;;;18.60;;
9964;SDS011;5023;53.554;9.964;2024-03-02T09:52:38;23.35;;;18.40;;
9964;SDS011;5023;53.554;9.964;2024-03-02T09:57:42;22.73;;;17.38;;
9964;SDS011;5023;53.554;9.964;2024-03-02T10:02:44;22.47;;;17.43;;
9964;SDS011;5023;53.554;9.964;2024-03-02T10:07:52;22.92;;;17.40;;
9964;SDS011;5023;53.554;9.964;2024-03-02T10:13:04;20.50;;;16.73;;
9964;SDS011;5023;53.554;9.964;2024-03-02T10:18:11;20.98;;;16.52;;
9964;SDS011;5023;53.554;9.964;2024-03-02T10:23:14;17.17;;;14.40;;
9964;SDS011;5023;53.554;9.964;2024-03-02T10:28:18;18.50;;;14.25;;
9964;SDS011;5023;53.554;9.964;2024-03-02T10:33:20;18.38;;;14.80;;
9964;SDS011;5023;53.554;9.964;2024-03-02T10:38:22;17.35;;;15.15;;
9964;SDS011;5023;53.554;9.964;2024-03-02T10:43:26;16.50;;;14.00;;
9964;SDS011;5023;53.554;9.964;2024-03-02T10:48:29;17.70;;;15.43;;
9964;SDS011;5023;53.554;9.964;2024-03-02T10:53:32;23.48;;;18.10;;
9964;SDS011;5023;53.554;9.964;2024-03-02T10:58:35;16.10;;;13.50;;
9964;SDS011;5023;53.554;9.964;2024-03-02T11:03:38;20.85;;;14.10;;
9964;SDS011;5023;53.554;9.964;2024-03-02T11:08:42;15.07;;;12.63;;
9964;SDS011;5023;53.554;9.964;2024-03-02T11:13:49;19.67;;;14.25;;
9964;SDS011;5023;53.554;9.964;2024-03-02T11:18:51;16.30;;;12.57;;
9964;SDS011;5023;53.554;9.964;2024-03-02T11:23:53;13.73;;;11.93;;
9964;SDS011;5023;53.554;9.964;2024-03-02T11:28:57;23.50;;;13.82;;
9964;SDS011;5023;53.554;9.964;2024-03-02T11:34:07;19.38;;;14.00;;
9964;SDS011;5023;53.554;9.964;2024-03-02T11:39:19;16.45;;;11.63;;
9964;SDS011;5023;53.554;9.964;2024-03-02T11:44:23;11.50;;;10.30;;
9964;SDS011;5023;53.554;9.964;2024-03-02T11:49:36;16.55;;;11.65;;
9964;SDS011;5023;53.554;9.964;2024-03-02T11:54:40;13.98;;;12.07;;
9964;SDS011;5023;53.554;9.964;2024-03-02T11:59:50;11.30;;;10.10;;
9964;SDS011;5023;53.554;9.964;2024-03-02T12:04:52;12.52;;;10.93;;
9964;SDS011;5023;53.554;9.964;2024-03-02T12:09:59;13.75;;;10.70;;
9964;SDS011;5023;53.554;9.964;2024-03-02T12:15:03;13.70;;;10.18;;
9964;SDS011;5023;53.554;9.964;2024-03-02T12:20:06;12.38;;;9.60;;
9964;SDS011;5023;53.554;9.964;2024-03-02T12:25:13;10.35;;;8.85;;
9964;SDS011;5023;53.554;9.964;2024-03-02T12:30:18;10.35;;;9.25;;
9964;SDS011;5023;53.554;9.964;2024-03-02T12:35:20;9.82;;;8.82;;
9964;SDS011;5023;53.554;9.964;2024-03-02T12:40:22;10.93;;;9.15;;
9964;SDS011;5023;53.554;9.964;2024-03-02T12:45:25;10.35;;;9.25;;
9964;SDS011;5023;53.554;9.964;2024-03-02T12:50:28;9.90;;;8.15;;
9964;SDS011;5023;53.554;9.964;2024-03-02T12:55:30;12.25;;;9.93;;
9964;SDS011;5023;53.554;9.964;2024-03-02T13:00:34;11.35;;;9.10;;
9964;SDS011;5023;53.554;9.964;2024-03-02T13:05:36;10.05;;;8.18;;
9964;SDS011;5023;53.554;9.964;2024-03-02T13:10:38;9.63;;;8.23;;
9964;SDS011;5023;53.554;9.964;2024-03-02T13:15:42;11.23;;;9.68;;
9964;SDS011;5023;53.554;9.964;2024-03-02T13:20:45;15.77;;;13.40;;
9964;SDS011;5023;53.554;9.964;2024-03-02T13:25:47;11.27;;;10.05;;
9964;SDS011;5023;53.554;9.964;2024-03-02T13:30:50;9.23;;;8.32;;
9964;SDS011;5023;53.554;9.964;2024-03-02T13:35:52;9.73;;;8.30;;
9964;SDS011;5023;53.554;9.964;2024-03-02T13:40:54;9.90;;;8.90;;
9964;SDS011;5023;53.554;9.964;2024-03-02T13:45:58;9.77;;;8.77;;
9964;SDS011;5023;53.554;9.964;2024-03-02T13:51:00;12.57;;;9.73;;
9964;SDS011;5023;53.554;9.964;2024-03-02T13:56:02;10.80;;;9.70;;
9964;SDS011;5023;53.554;9.964;2024-03-02T14:01:06;12.55;;;11.13;;
9964;SDS011;5023;53.554;9.964;2024-03-02T14:06:08;14.40;;;10.02;;
9964;SDS011;5023;53.554;9.964;2024-03-02T14:11:10;11.15;;;10.05;;
9964;SDS011;5023;53.554;9.964;2024-03-02T14:16:16;10.73;;;9.63;;
9964;SDS011;5023;53.554;9.964;2024-03-02T14:21:18;11.95;;;9.68;;
9964;SDS011;5023;53.554;9.964;2024-03-02T14:26:20;13.05;;;11.10;;
9964;SDS011;5023;53.554;9.964;2024-03-02T14:31:23;16.83;;;13.82;;
9964;SDS011;5023;53.554;9.964;2024-03-02T14:36:25;19.17;;;15.15;;
9964;SDS011;5023;53.554;9.964;2024-03-02T14:41:28;14.50;;;11.50;;
9964;SDS011;5023;53.554;9.964;2024-03-02T14:46:31;11.60;;;10.38;;
9964;SDS011;5023;53.554;9.964;2024-03-02T14:51:35;17.30;;;14.35;;
9964;SDS011;5023;53.554;9.964;2024-03-02T14:56:37;11.93;;;10.65;;
9964;SDS011;5023;53.554;9.964;2024-03-02T15:01:41;9.70;;;8.68;;
9964;SDS011;5023;53.554;9.964;2024-03-02T15:06:42;10.13;;;8.05;;
9964;SDS011;5023;53.554;9.964;2024-03-02T15:11:45;10.70;;;9.15;;
9964;SDS011;5023;53.554;9.964;2024-03-02T15:16:48;8.48;;;7.55;;
9964;SDS011;5023;53.554;9.964;2024-03-02T15:21:50;9.52;;;8.10;;
9964;SDS011;5023;53.554;9.964;2024-03-02T15:26:52;10.65;;;8.98;;
9964;SDS011;5023;53.554;9.964;2024-03-02T15:31:55;14.43;;;11.02;;
9964;SDS011;5023;53.554;9.964;2024-03-02T15:36:57;13.75;;;11.93;;
9964;SDS011;5023;53.554;9.964;2024-03-02T15:41:59;16.05;;;12.65;;
9964;SDS011;5023;53.554;9.964;2024-03-02T15:47:03;17.45;;;13.20;;
9964;SDS011;5023;53.554;9.964;2024-03-02T15:52:05;14.75;;;11.55;;
9964;SDS011;5023;53.554;9.964;2024-03-02T15:57:07;14.63;;;12.38;;
9964;SDS011;5023;53.554;9.964;2024-03-02T16:02:10;18.02;;;13.23;;
9964;SDS011;5023;53.554;9.964;2024-03-02T16:07:12;12.85;;;11.05;;
9964;SDS011;5023;53.554;9.964;2024-03-02T16:12:14;17.50;;;12.43;;
9964;SDS011;5023;53.554;9.964;2024-03-02T16:17:18;16.83;;;12.70;;
9964;SDS011;5023;53.554;9.964;2024-03-02T16:22:20;14.23;;;11.02;;
9964;SDS011;5023;53.554;9.964;2024-03-02T16:27:22;11.95;;;10.75;;
9964;SDS011;5023;53.554;9.964;2024-03-02T16:32:26;13.18;;;10.27;;
9964;SDS011;5023;53.554;9.964;2024-03-02T16:37:28;12.90;;;10.70;;
9964;SDS011;5023;53.554;9.964;2024-03-02T16:42:29;15.85;;;11.38;;
9964;SDS011;5023;53.554;9.964;2024-03-02T16:47:33;12.13;;;9.82;;
9964;SDS011;5023;53.554;9.964;2024-03-02T16:52:35;19.08;;;13.10;;
9964;SDS011;5023;53.554;9.964;2024-03-02T16:57:37;16.27;;;11.40;;
9964;SDS011;5023;53.554;9.964;2024-03-02T17:02:40;13.98;;;10.60;;
9964;SDS011;5023;53.554;9.964;2024-03-02T17:07:42;17.20;;;13.68;;
9964;SDS011;5023;53.554;9.964;2024-03-02T17:12:44;16.65;;;12.68;;
9964;SDS011;5023;53.554;9.964;2024-03-02T17:17:47;16.52;;;12.52;;
9964;SDS011;5023;53.554;9.964;2024-03-02T17:22:49;13.27;;;11.25;;
9964;SDS011;5023;53.554;9.964;2024-03-02T17:27:51;15.60;;;12.27;;
9964;SDS011;5023;53.554;9.964;2024-03-02T17:32:54;11.15;;;9.45;;
9964;SDS011;5023;53.554;9.964;2024-03-02T17:37:56;12.73;;;10.27;;
9964;SDS011;5023;53.554;9.964;2024-03-02T17:42:58;15.45;;;10.27;;
9964;SDS011;5023;53.554;9.964;2024-03-02T17:48:01;12.90;;;9.45;;
9964;SDS011;5023;53.554;9.964;2024-03-02T17:53:03;14.32;;;10.40;;
9964;SDS011;5023;53.554;9.964;2024-03-02T17:58:05;22.00;;;16.02;;
9964;SDS011;5023;53.554;9.964;2024-03-02T18:03:08;17.52;;;12.05;;
9964;SDS011;5023;53.554;9.964;2024-03-02T18:08:10;13.70;;;10.18;;
9964;SDS011;5023;53.554;9.964;2024-03-02T18:13:12;12.95;;;10.85;;
9964;SDS011;5023;53.554;9.964;2024-03-02T18:18:15;14.23;;;11.40;;
9964;SDS011;5023;53.554;9.964;2024-03-02T18:23:17;14.20;;;12.45;;
9964;SDS011;5023;53.554;9.964;2024-03-02T18:28:19;17.17;;;13.65;;
9964;SDS011;5023;53.554;9.964;2024-03-02T18:33:23;14.43;;;12.18;;
9964;SDS011;5023;53.554;9.964;2024-03-02T18:38:25;16.55;;;13.20;;
9964;SDS011;5023;53.554;9.964;2024-03-02T18:43:27;19.08;;;14.05;;
9964;SDS011;5023;53.554;9.964;2024-03-02T18:48:30;15.45;;;13.75;;
9964;SDS011;5023;53.554;9.964;2024-03-02T18:53:32;17.17;;;13.95;;
9964;SDS011;5023;53.554;9.964;2024-03-02T18:58:34;17.45;;;13.95;;
9964;SDS011;5023;53.554;9.964;2024-03-02T19:03:37;22.77;;;18.73;;
9964;SDS011;5023;53.554;9.964;2024-03-02T19:08:39;20.05;;;16.52;;
9964;SDS011;5023;53.554;9.964;2024-03-02T19:13:41;26.95;;;19.75;;
9964;SDS011;5023;53.554;9.964;2024-03-02T19:18:46;29.23;;;22.15;;
9964;SDS011;5023;53.554;9.964;2024-03-02T19:23:48;17.95;;;15.30;;
9964;SDS011;5023;53.554;9.964;2024-03-02T19:28:50;21.10;;;15.75;;
9964;SDS011;5023;53.554;9.964;2024-03-02T19:33:53;20.95;;;15.93;;
9964;SDS011;5023;53.554;9.964;2024-03-02T19:38:55;18.55;;;16.27;;
9964;SDS011;5023;53.554;9.964;2024-03-02T19:43:57;20.08;;;16.40;;
9964;SDS011;5023;53.554;9.964;2024-03-02T19:49:00;20.00;;;17.75;;
9964;SDS011;5023;53.554;9.964;2024-03-02T19:54:02;21.83;;;16.88;;
9964;SDS011;5023;53.554;9.964;2024-03-02T19:59:04;22.10;;;17.00;;
9964;SDS011;5023;53.554;9.964;2024-03-02T20:04:11;24.30;;;18.70;;
9964;SDS011;5023;53.554;9.964;2024-03-02T20:09:13;19.25;;;17.17;;
9964;SDS011;5023;53.554;9.964;2024-03-02T20:14:15;24.80;;;19.30;;
9964;SDS011;5023;53.554;9.964;2024-03-02T20:19:18;24.10;;;20.00;;
9964;SDS011;5023;53.554;9.964;2024-03-02T20:24:21;25.65;;;20.48;;
9964;SDS011;5023;53.554;9.964;2024-03-02T20:29:23;31.05;;;24.25;;
9964;SDS011;5023;53.554;9.964;2024-03-02T20:39:59;21.67;;;18.15;;
9964;SDS011;5023;53.554;9.964;2024-03-02T20:45:16;23.48;;;19.42;;
9964;SDS011;5023;53.554;9.964;2024-03-02T20:50:22;21.08;;;17.15;;
9964;SDS011;5023;53.554;9.964;2024-03-02T20:55:55;20.38;;;16.83;;
9964;SDS011;5023;53.554;9.964;2024-03-02T21:00:59;20.95;;;17.35;;
9964;SDS011;5023;53.554;9.964;2024-03-02T21:06:10;21.23;;;17.10;;
9964;SDS011;5023;53.554;9.964;2024-03-02T21:11:12;24.63;;;19.65;;
9964;SDS011;5023;53.554;9.964;2024-03-02T21:16:16;26.20;;;21.80;;
9964;SDS011;5023;53.554;9.964;2024-03-02T21:21:19;28.58;;;20.88;;
9964;SDS011;5023;53.554;9.964;2024-03-02T21:26:21;32.47;;;27.67;;
9964;SDS011;5023;53.554;9.964;2024-03-02T21:31:25;22.80;;;17.17;;
9964;SDS011;5023;53.554;9.964;2024-03-02T21:36:29;32.90;;;25.38;;
9964;SDS011;5023;53.554;9.964;2024-03-02T21:41:31;23.92;;;19.90;;
9964;SDS011;5023;53.554;9.964;2024-03-02T21:46:33;21.13;;;17.52;;
9964;SDS011;5023;53.554;9.964;2024-03-02T21:51:37;40.47;;;28.80;;
9964;SDS011;5023;53.554;9.964;2024-03-02T21:56:39;24.63;;;19.33;;
9964;SDS011;5023;53.554;9.964;2024-03-02T22:01:40;59.33;;;41.30;;
9964;SDS011;5023;53.554;9.964;2024-03-02T22:06:44;27.77;;;23.50;;
9964;SDS011;5023;53.554;9.964;2024-03-02T22:11:46;22.83;;;17.35;;
9964;SDS011;5023;53.554;9.964;2024-03-02T22:16:48;23.08;;;17.17;;
9964;SDS011;5023;53.554;9.964;2024-03-02T22:21:51;23.02;;;17.10;;
9964;SDS011;5023;53.554;9.964;2024-03-02T22:26:53;24.50;;;16.05;;
9964;SDS011;5023;53.554;9.964;2024-03-02T22:31:55;22.55;;;16.17;;
9964;SDS011;5023;53.554;9.964;2024-03-02T22:36:58;20.43;;;15.60;;
9964;SDS011;5023;53.554;9.964;2024-03-02T22:42:03;21.73;;;15.80;;
9964;SDS011;5023;53.554;9.964;2024-03-02T22:47:05;26.17;;;18.63;;
9964;SDS011;5023;53.554;9.964;2024-03-02T22:52:09;22.52;;;16.42;;
9964;SDS011;5023;53.554;9.964;2024-03-02T22:57:11;18.48;;;14.90;;
9964;SDS011;5023;53.554;9.964;2024-03-02T23:02:17;24.93;;;20.63;;
9964;SDS011;5023;53.554;9.964;2024-03-02T23:07:21;21.48;;;16.92;;
9964;SDS011;5023;53.554;9.964;2024-03-02T23:12:23;22.65;;;18.08;;
9964;SDS011;5023;53.554;9.964;2024-03-02T23:17:25;21.00;;;15.35;;
9964;SDS011;5023;53.554;9.964;2024-03-02T23:22:28;32.50;;;19.58;;
9964;SDS011;5023;53.554;9.964;2024-03-02T23:27:30;42.05;;;30.48;;
9964;SDS011;5023;53.554;9.964;2024-03-02T23:32:32;22.30;;;17.73;;
9964;SDS011;5023;53.554;9.964;2024-03-02T23:37:36;23.83;;;19.17;;
9964;SDS011;5023;53.554;9.964;2024-03-02T23:42:38;24.80;;;21.07;;
9964;SDS011;5023;53.554;9.964;2024-03-02T23:47:39;20.70;;;16.08;;
9964;SDS011;5023;53.554;9.964;2024-03-02T23:52:43;27.87;;;21.53;;
9964;SDS011;5023;53.554;9.964;2024-03-02T23:57:45;19.77;;;16.97;;
